sensor_id;sensor_type;location;lat;lon;timestamp;pressure;altitude;pressure_sealevel;temperature;humidity
73981;BME280;62348;51.412;5.436;2023-03-16T00:00:35;101666.56;;;3.91;76.65
73981;BME280;62348;51.412;5.436;2023-03-16T00:03:01;101658.53;;;3.91;77.11
73981;BME280;62348;51.412;5.436;2023-03-16T00:05:26;101644.53;;;3.89;77.24
73981;BME280;62348;51.412;5.436;2023-03-16T00:07:52;101646.38;;;3.89;76.92
73981;BME280;62348;51.412;5.436;2023-03-16T00:10:17;101641.66;;;3.91;77.67
73981;BME280;62348;51.412;5.436;2023-03-16T00:12:43;101645.97;;;3.92;77.73
73981;BME280;62348;51.412;5.436;2023-03-16T00:15:10;101645.97;;;3.92;77.13
73981;BME280;62348;51.412;5.436;2023-03-16T00:17:35;101641.44;;;3.92;77.11
73981;BME280;62348;51.412;5.436;2023-03-16T00:20:01;101633.41;;;3.92;77.01
73981;BME280;62348;51.412;5.436;2023-03-16T00:22:30;101641.25;;;3.94;77.35
73981;BME280;62348;51.412;5.436;2023-03-16T00:24:56;101634.06;;;3.95;77.20
73981;BME280;62348;51.412;5.436;2023-03-16T00:27:23;101628.91;;;3.93;77.10
73981;BME280;62348;51.412;5.436;2023-03-16T00:29:50;101632.41;;;3.94;76.96
73981;BME280;62348;51.412;5.436;2023-03-16T00:32:24;101617.34;;;3.92;77.21
73981;BME280;62348;51.412;5.436;2023-03-16T00:34:50;101623.34;;;3.95;77.46
73981;BME280;62348;51.412;5.436;2023-03-16T00:37:17;101619.00;;;3.94;77.26
73981;BME280;62348;51.412;5.436;2023-03-16T00:39:45;101622.50;;;3.94;77.44
73981;BME280;62348;51.412;5.436;2023-03-16T00:42:12;101618.00;;;3.95;77.35
73981;BME280;62348;51.412;5.436;2023-03-16T00:44:38;101615.97;;;3.97;77.41
73981;BME280;62348;51.412;5.436;2023-03-16T00:47:07;101616.78;;;3.97;77.07
73981;BME280;62348;51.412;5.436;2023-03-16T00:49:34;101616.97;;;3.96;77.51
73981;BME280;62348;51.412;5.436;2023-03-16T00:52:04;101606.06;;;3.97;77.19
73981;BME280;62348;51.412;5.436;2023-03-16T00:54:31;101606.06;;;3.97;77.55
73981;BME280;62348;51.412;5.436;2023-03-16T00:56:58;101597.00;;;3.98;78.07
73981;BME280;62348;51.412;5.436;2023-03-16T00:59:24;101604.03;;;3.99;77.68
73981;BME280;62348;51.412;5.436;2023-03-16T01:01:53;101598.03;;;3.97;77.92
73981;BME280;62348;51.412;5.436;2023-03-16T01:04:19;101599.47;;;4.00;78.05
73981;BME280;62348;51.412;5.436;2023-03-16T01:06:45;101590.63;;;3.99;77.79
73981;BME280;62348;51.412;5.436;2023-03-16T01:09:11;101591.25;;;4.01;77.91
73981;BME280;62348;51.412;5.436;2023-03-16T01:11:37;101578.91;;;4.00;77.82
73981;BME280;62348;51.412;5.436;2023-03-16T01:14:04;101575.41;;;4.00;77.58
73981;BME280;62348;51.412;5.436;2023-03-16T01:16:29;101581.56;;;4.00;77.89
73981;BME280;62348;51.412;5.436;2023-03-16T01:18:57;101572.72;;;4.00;78.41
73981;BME280;62348;51.412;5.436;2023-03-16T01:21:23;101576.88;;;4.02;78.06
73981;BME280;62348;51.412;5.436;2023-03-16T01:23:49;101567.19;;;4.01;78.20
73981;BME280;62348;51.412;5.436;2023-03-16T01:26:14;101551.13;;;4.01;78.34
73981;BME280;62348;51.412;5.436;2023-03-16T01:28:42;101550.94;;;4.03;77.86
73981;BME280;62348;51.412;5.436;2023-03-16T01:31:10;101555.47;;;4.02;77.45
73981;BME280;62348;51.412;5.436;2023-03-16T01:33:36;101553.81;;;4.01;77.81
73981;BME280;62348;51.412;5.436;2023-03-16T01:36:06;101549.06;;;4.03;78.24
73981;BME280;62348;51.412;5.436;2023-03-16T01:38:32;101539.19;;;4.04;77.97
73981;BME280;62348;51.412;5.436;2023-03-16T01:40:58;101537.13;;;4.06;77.77
73981;BME280;62348;51.412;5.436;2023-03-16T01:43:26;101527.66;;;4.03;77.76
73981;BME280;62348;51.412;5.436;2023-03-16T01:46:16;101538.78;;;4.07;77.51
73981;BME280;62348;51.412;5.436;2023-03-16T01:48:50;101533.84;;;4.04;77.92
73981;BME280;62348;51.412;5.436;2023-03-16T01:53:56;101543.31;;;4.06;77.88
73981;BME280;62348;51.412;5.436;2023-03-16T01:56:30;101545.16;;;4.06;77.92
73981;BME280;62348;51.412;5.436;2023-03-16T01:59:01;101532.00;;;4.04;77.89
73981;BME280;62348;51.412;5.436;2023-03-16T02:01:27;101538.38;;;4.03;78.05
73981;BME280;62348;51.412;5.436;2023-03-16T02:04:04;101528.28;;;4.05;77.61
73981;BME280;62348;51.412;5.436;2023-03-16T02:06:33;101526.44;;;4.06;78.60
73981;BME280;62348;51.412;5.436;2023-03-16T02:08:59;101528.28;;;4.05;78.38
73981;BME280;62348;51.412;5.436;2023-03-16T02:11:25;101523.56;;;4.07;78.41
73981;BME280;62348;51.412;5.436;2023-03-16T02:13:50;101528.72;;;4.09;78.05
73981;BME280;62348;51.412;5.436;2023-03-16T02:16:17;101530.38;;;4.10;78.87
73981;BME280;62348;51.412;5.436;2023-03-16T02:18:46;101523.97;;;4.11;78.30
73981;BME280;62348;51.412;5.436;2023-03-16T02:23:41;101517.81;;;4.10;79.71
73981;BME280;62348;51.412;5.436;2023-03-16T02:26:31;101516.75;;;4.11;79.37
73981;BME280;62348;51.412;5.436;2023-03-16T02:31:50;101517.81;;;4.10;79.24
73981;BME280;62348;51.412;5.436;2023-03-16T02:34:18;101519.88;;;4.08;79.83
73981;BME280;62348;51.412;5.436;2023-03-16T02:36:44;101518.81;;;4.09;80.40
73981;BME280;62348;51.412;5.436;2023-03-16T02:39:10;101513.47;;;4.09;80.64
73981;BME280;62348;51.412;5.436;2023-03-16T02:41:36;101505.44;;;4.09;80.54
73981;BME280;62348;51.412;5.436;2023-03-16T02:44:14;101507.09;;;4.10;80.23
73981;BME280;62348;51.412;5.436;2023-03-16T02:46:42;101506.91;;;4.12;80.76
73981;BME280;62348;51.412;5.436;2023-03-16T02:49:19;101498.88;;;4.12;79.92
73981;BME280;62348;51.412;5.436;2023-03-16T02:51:46;101503.59;;;4.10;80.08
73981;BME280;62348;51.412;5.436;2023-03-16T02:54:12;101500.09;;;4.09;79.75
73981;BME280;62348;51.412;5.436;2023-03-16T02:56:38;101509.16;;;4.08;80.04
73981;BME280;62348;51.412;5.436;2023-03-16T02:59:04;101501.94;;;4.09;79.97
73981;BME280;62348;51.412;5.436;2023-03-16T03:01:29;101491.25;;;4.09;80.59
73981;BME280;62348;51.412;5.436;2023-03-16T03:03:56;101487.75;;;4.08;80.36
73981;BME280;62348;51.412;5.436;2023-03-16T03:06:22;101489.38;;;4.09;80.40
73981;BME280;62348;51.412;5.436;2023-03-16T03:08:48;101485.88;;;4.09;79.97
73981;BME280;62348;51.412;5.436;2023-03-16T03:11:14;101477.88;;;4.09;79.68
73981;BME280;62348;51.412;5.436;2023-03-16T03:13:39;101486.94;;;4.08;79.54
73981;BME280;62348;51.412;5.436;2023-03-16T03:16:08;101478.25;;;4.06;80.10
73981;BME280;62348;51.412;5.436;2023-03-16T03:18:34;101484.44;;;4.06;80.23
73981;BME280;62348;51.412;5.436;2023-03-16T03:20:59;101478.25;;;4.06;79.68
73981;BME280;62348;51.412;5.436;2023-03-16T03:23:24;101480.94;;;4.06;80.09
73981;BME280;62348;51.412;5.436;2023-03-16T03:25:50;101478.25;;;4.06;80.45
73981;BME280;62348;51.412;5.436;2023-03-16T03:28:15;101476.41;;;4.06;80.66
73981;BME280;62348;51.412;5.436;2023-03-16T03:30:41;101473.75;;;4.06;79.30
73981;BME280;62348;51.412;5.436;2023-03-16T03:33:06;101471.06;;;4.06;79.50
73981;BME280;62348;51.412;5.436;2023-03-16T03:35:31;101482.97;;;4.04;79.55
73981;BME280;62348;51.412;5.436;2023-03-16T03:37:57;101477.44;;;4.05;79.76
73981;BME280;62348;51.412;5.436;2023-03-16T03:40:22;101480.53;;;4.02;80.03
73981;BME280;62348;51.412;5.436;2023-03-16T03:42:48;101472.28;;;4.04;79.33
73981;BME280;62348;51.412;5.436;2023-03-16T03:45:13;101471.47;;;4.03;79.90
73981;BME280;62348;51.412;5.436;2023-03-16T03:47:43;101469.59;;;4.04;80.26
73981;BME280;62348;51.412;5.436;2023-03-16T03:50:10;101474.34;;;4.02;79.93
73981;BME280;62348;51.412;5.436;2023-03-16T03:52:36;101464.47;;;4.02;80.52
73981;BME280;62348;51.412;5.436;2023-03-16T03:55:01;101468.78;;;4.03;80.88
73981;BME280;62348;51.412;5.436;2023-03-16T03:57:26;101470.66;;;4.03;80.41
73981;BME280;62348;51.412;5.436;2023-03-16T03:59:52;101466.72;;;4.05;80.38
73981;BME280;62348;51.412;5.436;2023-03-16T04:02:17;101458.69;;;4.05;80.16
73981;BME280;62348;51.412;5.436;2023-03-16T04:04:43;101456.03;;;4.05;81.09
73981;BME280;62348;51.412;5.436;2023-03-16T04:07:09;101442.66;;;4.05;80.56
73981;BME280;62348;51.412;5.436;2023-03-16T04:09:35;101439.34;;;4.03;80.07
73981;BME280;62348;51.412;5.436;2023-03-16T04:12:01;101440.78;;;4.06;80.50
73981;BME280;62348;51.412;5.436;2023-03-16T04:14:27;101438.97;;;4.06;81.03
73981;BME280;62348;51.412;5.436;2023-03-16T04:16:53;101441.63;;;4.06;81.05
73981;BME280;62348;51.412;5.436;2023-03-16T04:19:23;101441.44;;;4.08;81.28
73981;BME280;62348;51.412;5.436;2023-03-16T04:21:49;101445.94;;;4.07;81.14
73981;BME280;62348;51.412;5.436;2023-03-16T04:24:15;101438.75;;;4.08;80.86
73981;BME280;62348;51.412;5.436;2023-03-16T04:26:43;101439.56;;;4.08;81.10
73981;BME280;62348;51.412;5.436;2023-03-16T04:29:13;101441.22;;;4.09;80.35
73981;BME280;62348;51.412;5.436;2023-03-16T04:31:42;101434.22;;;4.08;80.66
73981;BME280;62348;51.412;5.436;2023-03-16T04:34:08;101439.38;;;4.10;80.77
73981;BME280;62348;51.412;5.436;2023-03-16T04:36:33;101435.47;;;4.13;80.32
73981;BME280;62348;51.412;5.436;2023-03-16T04:38:58;101438.13;;;4.13;80.07
73981;BME280;62348;51.412;5.436;2023-03-16T04:41:24;101434.22;;;4.15;80.15
73981;BME280;62348;51.412;5.436;2023-03-16T04:43:50;101428.06;;;4.15;80.51
73981;BME280;62348;51.412;5.436;2023-03-16T04:46:16;101429.47;;;4.17;80.18
73981;BME280;62348;51.412;5.436;2023-03-16T04:48:41;101433.00;;;4.18;79.76
73981;BME280;62348;51.412;5.436;2023-03-16T04:51:06;101431.16;;;4.18;80.89
73981;BME280;62348;51.412;5.436;2023-03-16T04:53:32;101433.63;;;4.20;80.42
73981;BME280;62348;51.412;5.436;2023-03-16T04:55:58;101431.56;;;4.22;80.84
73981;BME280;62348;51.412;5.436;2023-03-16T04:58:28;101430.75;;;4.21;80.58
73981;BME280;62348;51.412;5.436;2023-03-16T05:00:53;101428.88;;;4.22;80.46
73981;BME280;62348;51.412;5.436;2023-03-16T05:03:22;101431.38;;;4.23;80.63
73981;BME280;62348;51.412;5.436;2023-03-16T05:05:48;101424.16;;;4.24;80.77
73981;BME280;62348;51.412;5.436;2023-03-16T05:08:14;101421.28;;;4.25;80.39
73981;BME280;62348;51.412;5.436;2023-03-16T05:10:40;101420.66;;;4.23;80.81
73981;BME280;62348;51.412;5.436;2023-03-16T05:13:06;101418.81;;;4.24;81.07
73981;BME280;62348;51.412;5.436;2023-03-16T05:15:31;101408.28;;;4.22;81.55
73981;BME280;62348;51.412;5.436;2023-03-16T05:17:57;101405.41;;;4.24;81.14
73981;BME280;62348;51.412;5.436;2023-03-16T05:20:23;101411.59;;;4.24;81.32
73981;BME280;62348;51.412;5.436;2023-03-16T05:22:49;101409.72;;;4.25;81.36
73981;BME280;62348;51.412;5.436;2023-03-16T05:25:16;101404.38;;;4.25;81.32
73981;BME280;62348;51.412;5.436;2023-03-16T05:27:50;101399.88;;;4.25;81.02
73981;BME280;62348;51.412;5.436;2023-03-16T05:30:16;101400.06;;;4.24;81.10
73981;BME280;62348;51.412;5.436;2023-03-16T05:32:43;101408.50;;;4.27;80.94
73981;BME280;62348;51.412;5.436;2023-03-16T05:35:10;101396.97;;;4.27;81.02
73981;BME280;62348;51.412;5.436;2023-03-16T05:37:41;101397.81;;;4.27;81.55
73981;BME280;62348;51.412;5.436;2023-03-16T05:40:10;101390.38;;;4.29;80.48
73981;BME280;62348;51.412;5.436;2023-03-16T05:42:44;101396.56;;;4.30;80.71
73981;BME280;62348;51.412;5.436;2023-03-16T05:45:11;101393.88;;;4.30;80.62
73981;BME280;62348;51.412;5.436;2023-03-16T05:47:36;101391.00;;;4.32;80.80
73981;BME280;62348;51.412;5.436;2023-03-16T05:50:05;101386.47;;;4.32;81.20
73981;BME280;62348;51.412;5.436;2023-03-16T05:52:33;101374.75;;;4.33;81.26
73981;BME280;62348;51.412;5.436;2023-03-16T05:54:59;101369.38;;;4.33;80.61
73981;BME280;62348;51.412;5.436;2023-03-16T05:57:24;101377.22;;;4.35;81.08
73981;BME280;62348;51.412;5.436;2023-03-16T05:59:50;101378.84;;;4.36;80.42
73981;BME280;62348;51.412;5.436;2023-03-16T06:02:15;101380.72;;;4.35;80.97
73981;BME280;62348;51.412;5.436;2023-03-16T06:04:40;101379.66;;;4.36;80.89
73981;BME280;62348;51.412;5.436;2023-03-16T06:07:06;101387.69;;;4.36;81.29
73981;BME280;62348;51.412;5.436;2023-03-16T06:09:31;101388.34;;;4.38;80.82
73981;BME280;62348;51.412;5.436;2023-03-16T06:11:57;101384.00;;;4.37;80.76
73981;BME280;62348;51.412;5.436;2023-03-16T06:14:22;101381.13;;;4.39;80.95
73981;BME280;62348;51.412;5.436;2023-03-16T06:16:49;101384.63;;;4.39;81.01
73981;BME280;62348;51.412;5.436;2023-03-16T06:19:15;101383.59;;;4.40;80.41
73981;BME280;62348;51.412;5.436;2023-03-16T06:21:40;101386.91;;;4.42;80.65
73981;BME280;62348;51.412;5.436;2023-03-16T06:24:06;101385.22;;;4.41;80.37
73981;BME280;62348;51.412;5.436;2023-03-16T06:26:34;101388.53;;;4.43;80.61
73981;BME280;62348;51.412;5.436;2023-03-16T06:28:59;101387.50;;;4.44;80.66
73981;BME280;62348;51.412;5.436;2023-03-16T06:31:25;101382.75;;;4.46;80.42
73981;BME280;62348;51.412;5.436;2023-03-16T06:33:50;101374.53;;;4.48;80.45
73981;BME280;62348;51.412;5.436;2023-03-16T06:36:15;101370.19;;;4.47;80.30
73981;BME280;62348;51.412;5.436;2023-03-16T06:38:41;101368.13;;;4.49;80.31
73981;BME280;62348;51.412;5.436;2023-03-16T06:41:07;101367.94;;;4.50;81.08
73981;BME280;62348;51.412;5.436;2023-03-16T06:43:32;101365.25;;;4.50;81.47
73981;BME280;62348;51.412;5.436;2023-03-16T06:45:58;101363.38;;;4.51;81.85
73981;BME280;62348;51.412;5.436;2023-03-16T06:48:23;101369.59;;;4.52;81.59
73981;BME280;62348;51.412;5.436;2023-03-16T06:50:48;101364.22;;;4.52;81.68
73981;BME280;62348;51.412;5.436;2023-03-16T06:53:14;101372.03;;;4.53;82.14
73981;BME280;62348;51.412;5.436;2023-03-16T06:55:39;101370.19;;;4.54;81.30
73981;BME280;62348;51.412;5.436;2023-03-16T06:58:05;101364.63;;;4.55;81.64
73981;BME280;62348;51.412;5.436;2023-03-16T07:00:31;101375.13;;;4.57;80.46
73981;BME280;62348;51.412;5.436;2023-03-16T07:02:58;101371.63;;;4.56;80.83
73981;BME280;62348;51.412;5.436;2023-03-16T07:05:24;101365.03;;;4.59;80.89
73981;BME280;62348;51.412;5.436;2023-03-16T07:07:49;101359.47;;;4.60;80.49
73981;BME280;62348;51.412;5.436;2023-03-16T07:10:16;101371.84;;;4.61;80.15
73981;BME280;62348;51.412;5.436;2023-03-16T07:12:42;101367.09;;;4.63;80.25
73981;BME280;62348;51.412;5.436;2023-03-16T07:15:08;101358.63;;;4.66;79.83
73981;BME280;62348;51.412;5.436;2023-03-16T07:17:34;101357.59;;;4.67;81.07
73981;BME280;62348;51.412;5.436;2023-03-16T07:19:59;101358.81;;;4.72;79.86
73981;BME280;62348;51.412;5.436;2023-03-16T07:22:25;101350.59;;;4.73;79.61
73981;BME280;62348;51.412;5.436;2023-03-16T07:24:50;101357.38;;;4.76;78.97
73981;BME280;62348;51.412;5.436;2023-03-16T07:27:22;101351.59;;;4.79;78.98
73981;BME280;62348;51.412;5.436;2023-03-16T07:29:48;101346.66;;;4.82;78.90
73981;BME280;62348;51.412;5.436;2023-03-16T07:32:14;101349.94;;;4.84;80.11
73981;BME280;62348;51.412;5.436;2023-03-16T07:34:39;101353.03;;;4.88;78.72
73981;BME280;62348;51.412;5.436;2023-03-16T07:37:06;101351.78;;;4.91;79.24
73981;BME280;62348;51.412;5.436;2023-03-16T07:39:34;101352.19;;;4.94;78.46
73981;BME280;62348;51.412;5.436;2023-03-16T07:41:59;101361.66;;;4.97;78.03
73981;BME280;62348;51.412;5.436;2023-03-16T07:44:25;101361.03;;;5.01;77.30
73981;BME280;62348;51.412;5.436;2023-03-16T07:46:51;101358.97;;;5.03;77.64
73981;BME280;62348;51.412;5.436;2023-03-16T07:49:16;101354.22;;;5.05;77.11
73981;BME280;62348;51.412;5.436;2023-03-16T07:51:42;101358.91;;;5.10;76.54
73981;BME280;62348;51.412;5.436;2023-03-16T07:54:07;101356.84;;;5.12;77.58
73981;BME280;62348;51.412;5.436;2023-03-16T07:56:32;101359.31;;;5.14;77.32
73981;BME280;62348;51.412;5.436;2023-03-16T07:58:58;101362.19;;;5.19;76.40
73981;BME280;62348;51.412;5.436;2023-03-16T08:01:23;101356.19;;;5.23;75.68
73981;BME280;62348;51.412;5.436;2023-03-16T08:03:49;101363.63;;;5.28;76.76
73981;BME280;62348;51.412;5.436;2023-03-16T08:06:14;101361.13;;;5.33;75.92
73981;BME280;62348;51.412;5.436;2023-03-16T08:08:39;101351.00;;;5.35;76.35
73981;BME280;62348;51.412;5.436;2023-03-16T08:11:05;101359.22;;;5.40;75.46
73981;BME280;62348;51.412;5.436;2023-03-16T08:13:30;101357.97;;;5.43;75.67
73981;BME280;62348;51.412;5.436;2023-03-16T08:15:56;101362.69;;;5.47;75.71
73981;BME280;62348;51.412;5.436;2023-03-16T08:18:27;101354.22;;;5.51;75.30
73981;BME280;62348;51.412;5.436;2023-03-16T08:20:54;101359.75;;;5.56;75.22
73981;BME280;62348;51.412;5.436;2023-03-16T08:23:20;101365.50;;;5.59;75.48
73981;BME280;62348;51.412;5.436;2023-03-16T08:25:46;101363.00;;;5.64;74.75
73981;BME280;62348;51.412;5.436;2023-03-16T08:28:15;101368.56;;;5.70;74.44
73981;BME280;62348;51.412;5.436;2023-03-16T08:30:48;101369.13;;;5.78;74.56
73981;BME280;62348;51.412;5.436;2023-03-16T08:33:15;101360.44;;;5.83;74.63
73981;BME280;62348;51.412;5.436;2023-03-16T08:35:43;101357.94;;;5.88;74.94
73981;BME280;62348;51.412;5.436;2023-03-16T08:38:10;101366.13;;;5.93;74.32
73981;BME280;62348;51.412;5.436;2023-03-16T08:40:36;101361.19;;;5.97;74.27
73981;BME280;62348;51.412;5.436;2023-03-16T08:43:02;101367.16;;;5.99;74.10
73981;BME280;62348;51.412;5.436;2023-03-16T08:45:28;101357.03;;;6.01;73.70
73981;BME280;62348;51.412;5.436;2023-03-16T08:47:54;101356.38;;;6.05;72.73
73981;BME280;62348;51.412;5.436;2023-03-16T08:50:19;101349.97;;;6.06;74.29
73981;BME280;62348;51.412;5.436;2023-03-16T08:52:46;101354.09;;;6.09;73.91
73981;BME280;62348;51.412;5.436;2023-03-16T08:55:13;101347.44;;;6.12;73.41
73981;BME280;62348;51.412;5.436;2023-03-16T08:57:39;101346.41;;;6.13;72.35
73981;BME280;62348;51.412;5.436;2023-03-16T09:00:06;101347.63;;;6.17;72.95
73981;BME280;62348;51.412;5.436;2023-03-16T09:02:41;101342.66;;;6.20;73.16
73981;BME280;62348;51.412;5.436;2023-03-16T09:05:11;101336.59;;;6.25;72.32
73981;BME280;62348;51.412;5.436;2023-03-16T09:07:37;101339.69;;;6.29;72.21
73981;BME280;62348;51.412;5.436;2023-03-16T09:10:07;101335.06;;;6.36;72.61
73981;BME280;62348;51.412;5.436;2023-03-16T09:12:35;101325.31;;;6.41;73.54
73981;BME280;62348;51.412;5.436;2023-03-16T09:15:01;101333.28;;;6.48;71.23
73981;BME280;62348;51.412;5.436;2023-03-16T09:17:27;101332.41;;;6.54;70.97
73981;BME280;62348;51.412;5.436;2023-03-16T09:19:53;101331.75;;;6.59;70.99
73981;BME280;62348;51.412;5.436;2023-03-16T09:22:19;101334.94;;;6.68;70.88
73981;BME280;62348;51.412;5.436;2023-03-16T09:24:45;101332.28;;;6.86;70.34
73981;BME280;62348;51.412;5.436;2023-03-16T09:27:11;101330.41;;;7.05;70.65
73981;BME280;62348;51.412;5.436;2023-03-16T09:29:36;101327.84;;;7.29;69.50
73981;BME280;62348;51.412;5.436;2023-03-16T09:32:02;101335.97;;;7.40;68.50
73981;BME280;62348;51.412;5.436;2023-03-16T09:34:28;101322.03;;;7.43;68.62
73981;BME280;62348;51.412;5.436;2023-03-16T09:36:54;101329.09;;;7.45;66.79
73981;BME280;62348;51.412;5.436;2023-03-16T09:39:19;101321.00;;;7.45;66.54
73981;BME280;62348;51.412;5.436;2023-03-16T09:41:57;101324.50;;;7.45;67.04
73981;BME280;62348;51.412;5.436;2023-03-16T09:47:06;101319.28;;;7.50;66.48
73981;BME280;62348;51.412;5.436;2023-03-16T09:49:59;101321.03;;;7.56;68.11
73981;BME280;62348;51.412;5.436;2023-03-16T09:52:41;101318.16;;;7.70;68.50
73981;BME280;62348;51.412;5.436;2023-03-16T09:55:25;101316.91;;;7.72;65.59
73981;BME280;62348;51.412;5.436;2023-03-16T09:57:52;101322.19;;;7.91;67.03
73981;BME280;62348;51.412;5.436;2023-03-16T10:00:20;101313.81;;;8.11;64.68
73981;BME280;62348;51.412;5.436;2023-03-16T10:05:14;101308.13;;;8.43;64.42
73981;BME280;62348;51.412;5.436;2023-03-16T10:13:39;101295.75;;;8.70;63.04
73981;BME280;62348;51.412;5.436;2023-03-16T10:19:22;101285.63;;;9.01;64.11
73981;BME280;62348;51.412;5.436;2023-03-16T10:21:55;101283.81;;;9.07;61.66
73981;BME280;62348;51.412;5.436;2023-03-16T10:24:47;101284.75;;;9.12;62.42
73981;BME280;62348;51.412;5.436;2023-03-16T10:27:19;101278.19;;;9.08;61.47
73981;BME280;62348;51.412;5.436;2023-03-16T10:29:49;101274.69;;;9.08;61.83
73981;BME280;62348;51.412;5.436;2023-03-16T10:32:16;101285.47;;;9.08;60.89
73981;BME280;62348;51.412;5.436;2023-03-16T10:34:47;101274.22;;;9.11;61.96
73981;BME280;62348;51.412;5.436;2023-03-16T10:37:17;101281.91;;;9.19;62.75
73981;BME280;62348;51.412;5.436;2023-03-16T10:39:42;101288.69;;;9.22;61.53
73981;BME280;62348;51.412;5.436;2023-03-16T10:42:19;101270.72;;;9.27;61.07
73981;BME280;62348;51.412;5.436;2023-03-16T10:44:45;101272.56;;;9.38;62.87
73981;BME280;62348;51.412;5.436;2023-03-16T10:47:18;101271.22;;;9.53;61.40
73981;BME280;62348;51.412;5.436;2023-03-16T10:49:47;101265.41;;;9.61;60.28
73981;BME280;62348;51.412;5.436;2023-03-16T10:52:38;101269.34;;;9.70;61.11
73981;BME280;62348;51.412;5.436;2023-03-16T10:55:25;101257.53;;;9.76;60.24
73981;BME280;62348;51.412;5.436;2023-03-16T10:57:53;101262.22;;;9.81;58.30
73981;BME280;62348;51.412;5.436;2023-03-16T11:00:23;101256.41;;;9.89;59.38
73981;BME280;62348;51.412;5.436;2023-03-16T11:02:51;101251.44;;;9.98;59.52
73981;BME280;62348;51.412;5.436;2023-03-16T11:05:30;101246.34;;;10.02;58.03
73981;BME280;62348;51.412;5.436;2023-03-16T11:07:57;101238.81;;;10.04;57.55
73981;BME280;62348;51.412;5.436;2023-03-16T11:13:01;101248.72;;;10.15;58.93
73981;BME280;62348;51.412;5.436;2023-03-16T11:15:35;101227.72;;;10.22;58.42
73981;BME280;62348;51.412;5.436;2023-03-16T11:18:01;101216.84;;;10.34;57.35
73981;BME280;62348;51.412;5.436;2023-03-16T11:20:31;101225.41;;;10.48;59.19
73981;BME280;62348;51.412;5.436;2023-03-16T11:22:59;101219.22;;;10.52;55.20
73981;BME280;62348;51.412;5.436;2023-03-16T11:25:32;101219.78;;;10.54;55.66
73981;BME280;62348;51.412;5.436;2023-03-16T11:30:45;101216.84;;;10.56;56.22
73981;BME280;62348;51.412;5.436;2023-03-16T11:33:14;101205.47;;;10.54;55.75
73981;BME280;62348;51.412;5.436;2023-03-16T11:43:46;101189.63;;;10.63;56.45
73981;BME280;62348;51.412;5.436;2023-03-16T11:46:22;101192.38;;;10.68;54.49
73981;BME280;62348;51.412;5.436;2023-03-16T11:48:55;101188.03;;;10.67;54.81
73981;BME280;62348;51.412;5.436;2023-03-16T11:57:42;101177.63;;;10.81;55.31
73981;BME280;62348;51.412;5.436;2023-03-16T12:00:16;101180.88;;;10.78;54.55
73981;BME280;62348;51.412;5.436;2023-03-16T12:05:55;101158.72;;;10.81;55.57
73981;BME280;62348;51.412;5.436;2023-03-16T12:11:01;101151.16;;;10.83;54.91
73981;BME280;62348;51.412;5.436;2023-03-16T12:16:31;101150.41;;;10.87;55.51
73981;BME280;62348;51.412;5.436;2023-03-16T12:19:02;101162.84;;;10.88;53.76
73981;BME280;62348;51.412;5.436;2023-03-16T12:21:33;101158.56;;;10.92;53.38
73981;BME280;62348;51.412;5.436;2023-03-16T12:24:03;101153.44;;;10.96;52.98
73981;BME280;62348;51.412;5.436;2023-03-16T12:26:35;101152.44;;;11.02;54.11
73981;BME280;62348;51.412;5.436;2023-03-16T12:29:14;101149.25;;;11.10;53.05
73981;BME280;62348;51.412;5.436;2023-03-16T12:31:46;101142.81;;;11.17;55.00
73981;BME280;62348;51.412;5.436;2023-03-16T12:34:21;101142.63;;;11.23;53.96
73981;BME280;62348;51.412;5.436;2023-03-16T12:37:16;101135.59;;;11.27;52.04
73981;BME280;62348;51.412;5.436;2023-03-16T12:40:08;101108.28;;;11.29;52.00
73981;BME280;62348;51.412;5.436;2023-03-16T12:50:53;101093.72;;;11.35;52.90
73981;BME280;62348;51.412;5.436;2023-03-16T12:56:27;101078.88;;;11.43;51.51
73981;BME280;62348;51.412;5.436;2023-03-16T12:58:56;101077.28;;;11.47;51.41
73981;BME280;62348;51.412;5.436;2023-03-16T13:01:36;101080.53;;;11.49;52.06
73981;BME280;62348;51.412;5.436;2023-03-16T13:04:10;101070.00;;;11.52;53.20
73981;BME280;62348;51.412;5.436;2023-03-16T13:06:42;101058.09;;;11.53;51.12
73981;BME280;62348;51.412;5.436;2023-03-16T13:09:10;101065.94;;;11.55;50.63
73981;BME280;62348;51.412;5.436;2023-03-16T13:11:41;101062.41;;;11.55;51.34
73981;BME280;62348;51.412;5.436;2023-03-16T13:14:15;101072.44;;;11.54;51.21
73981;BME280;62348;51.412;5.436;2023-03-16T13:16:41;101065.13;;;11.55;50.04
73981;BME280;62348;51.412;5.436;2023-03-16T13:19:28;101056.75;;;11.56;52.75
73981;BME280;62348;51.412;5.436;2023-03-16T13:22:24;101047.31;;;11.64;53.42
73981;BME280;62348;51.412;5.436;2023-03-16T13:25:23;101038.66;;;11.67;52.84
73981;BME280;62348;51.412;5.436;2023-03-16T13:28:01;101038.38;;;11.68;50.73
73981;BME280;62348;51.412;5.436;2023-03-16T13:30:32;101038.97;;;11.70;51.90
73981;BME280;62348;51.412;5.436;2023-03-16T13:33:20;101043.28;;;11.71;53.46
73981;BME280;62348;51.412;5.436;2023-03-16T13:35:48;101030.00;;;11.70;49.96
73981;BME280;62348;51.412;5.436;2023-03-16T13:38:16;101027.59;;;11.73;51.41
73981;BME280;62348;51.412;5.436;2023-03-16T13:40:50;101025.69;;;11.74;50.26
73981;BME280;62348;51.412;5.436;2023-03-16T13:43:17;101023.25;;;11.72;51.45
73981;BME280;62348;51.412;5.436;2023-03-16T13:45:43;101020.25;;;11.74;51.39
73981;BME280;62348;51.412;5.436;2023-03-16T13:48:13;101023.56;;;11.76;52.00
73981;BME280;62348;51.412;5.436;2023-03-16T13:50:40;101018.94;;;11.77;52.16
73981;BME280;62348;51.412;5.436;2023-03-16T13:53:15;101005.69;;;11.80;51.78
73981;BME280;62348;51.412;5.436;2023-03-16T13:55:44;100990.78;;;11.83;52.08
73981;BME280;62348;51.412;5.436;2023-03-16T13:58:20;100997.84;;;11.84;52.01
73981;BME280;62348;51.412;5.436;2023-03-16T14:00:46;100985.66;;;11.86;51.67
73981;BME280;62348;51.412;5.436;2023-03-16T14:03:17;100979.44;;;11.91;50.60
73981;BME280;62348;51.412;5.436;2023-03-16T14:05:43;100973.22;;;11.90;50.37